| time (UTC) | temp F | wind direction | speed MPH | gust MPH | rain 1hr in | rain 24hr in | rain mn in | humidity % | barometer mb |
| 20260504150903 | 70 | 200 | 4.0 | 10.0 | 0.00 | 0.06 | 0.00 | 49 | 1032.9 |
| 20260504140903 | 63 | 191 | 6.0 | 13.0 | 0.00 | 0.11 | 0.00 | 59 | 1033.6 |
| 20260504100213 | 45 | 144 | 2.0 | 4.0 | 0.00 | 0.11 | 0.00 | 83 | 1034.8 |
| 20260504081803 | 50 | 184 | 2.0 | 4.0 | 0.00 | 0.11 | 0.00 | 73 | 1035.0 |
| 20260504080903 | 50 | 192 | 1.0 | 2.0 | 0.00 | 0.11 | 0.00 | 73 | 1034.7 |
| 20260504080214 | 50 | 268 | 0.0 | 2.0 | 0.00 | 0.11 | 0.00 | 73 | 1034.4 |
| 20260504070214 | 49 | 174 | 1.0 | 3.0 | 0.00 | 0.11 | 0.00 | 81 | 1035.5 |
| 20260504050003 | 54 | 193 | 3.0 | 8.0 | 0.00 | 0.11 | 0.00 | 73 | 1036.5 |
| 20260504045403 | 54 | 193 | 3.0 | 8.0 | 0.00 | 0.11 | 0.11 | 73 | 1036.6 |
| 20260504044714 | 54 | 186 | 3.0 | 5.0 | 0.00 | 0.11 | 0.11 | 72 | 1036.5 |
| 20260504043603 | 54 | 188 | 4.0 | 7.0 | 0.00 | 0.11 | 0.11 | 71 | 1036.4 |
| 20260504042703 | 54 | 193 | 3.0 | 6.0 | 0.00 | 0.11 | 0.11 | 71 | 1036.4 |
| 20260504041803 | 55 | 193 | 3.0 | 5.0 | 0.00 | 0.11 | 0.11 | 71 | 1036.4 |
| 20260504040903 | 55 | 190 | 3.0 | 6.0 | 0.00 | 0.11 | 0.11 | 71 | 1036.5 |
| 20260504040003 | 55 | 192 | 3.0 | 6.0 | 0.00 | 0.11 | 0.11 | 70 | 1036.4 |
| 20260504035403 | 56 | 193 | 3.0 | 6.0 | 0.00 | 0.11 | 0.11 | 69 | 1036.4 |
| 20260504034503 | 56 | 192 | 3.0 | 6.0 | 0.00 | 0.11 | 0.11 | 68 | 1036.3 |
| 20260504033603 | 56 | 187 | 2.0 | 4.0 | 0.00 | 0.11 | 0.11 | 68 | 1036.6 |
| 20260504032703 | 56 | 183 | 2.0 | 4.0 | 0.00 | 0.11 | 0.11 | 67 | 1036.3 |
| 20260504031803 | 57 | 183 | 2.0 | 5.0 | 0.00 | 0.11 | 0.11 | 65 | 1036.6 |
| 20260504030903 | 57 | 179 | 2.0 | 5.0 | 0.00 | 0.11 | 0.11 | 65 | 1036.6 |
| 20260504030003 | 58 | 184 | 2.0 | 5.0 | 0.00 | 0.11 | 0.11 | 65 | 1036.6 |
| 20260504025614 | 58 | 183 | 2.0 | 5.0 | 0.00 | 0.11 | 0.11 | 64 | 1036.6 |
| 20260504024503 | 59 | 193 | 3.0 | 8.0 | 0.00 | 0.11 | 0.11 | 63 | 1036.5 |
| 20260504023603 | 59 | 192 | 3.0 | 6.0 | 0.00 | 0.11 | 0.11 | 63 | 1036.6 |
| 20260504022703 | 59 | 188 | 3.0 | 4.0 | 0.00 | 0.11 | 0.11 | 63 | 1036.5 |
| 20260504021803 | 59 | 185 | 3.0 | 4.0 | 0.00 | 0.11 | 0.11 | 63 | 1036.6 |
| 20260504020903 | 59 | 186 | 2.0 | 5.0 | 0.00 | 0.11 | 0.11 | 62 | 1036.4 |
| 20260504020214 | 59 | 187 | 3.0 | 5.0 | 0.00 | 0.11 | 0.11 | 62 | 1036.3 |
| 20260504015403 | 60 | 187 | 3.0 | 5.0 | 0.00 | 0.11 | 0.11 | 62 | 1036.2 |
| 20260504014503 | 60 | 193 | 3.0 | 6.0 | 0.00 | 0.11 | 0.11 | 61 | 1036.2 |
| 20260504013603 | 60 | 186 | 3.0 | 6.0 | 0.00 | 0.11 | 0.11 | 61 | 1036.2 |
| 20260504012703 | 61 | 190 | 3.0 | 6.0 | 0.00 | 0.11 | 0.11 | 60 | 1036.0 |
| 20260504011803 | 62 | 193 | 4.0 | 7.0 | 0.00 | 0.11 | 0.11 | 59 | 1035.9 |
| 20260504011114 | 62 | 194 | 4.0 | 11.0 | 0.00 | 0.11 | 0.11 | 57 | 1036.0 |
| 20260504010213 | 63 | 200 | 6.0 | 12.0 | 0.00 | 0.11 | 0.11 | 55 | 1035.9 |
| 20260504005403 | 64 | 197 | 5.0 | 13.0 | 0.00 | 0.11 | 0.11 | 54 | 1035.7 |
| 20260504004503 | 64 | 199 | 4.0 | 9.0 | 0.00 | 0.11 | 0.11 | 54 | 1035.8 |
| 20260504003603 | 65 | 197 | 4.0 | 8.0 | 0.00 | 0.11 | 0.11 | 54 | 1035.9 |
| 20260504002703 | 66 | 200 | 4.0 | 8.0 | 0.00 | 0.11 | 0.11 | 52 | 1035.7 |
| 20260504001803 | 66 | 203 | 4.0 | 10.0 | 0.00 | 0.11 | 0.11 | 50 | 1035.8 |
| 20260504000903 | 67 | 204 | 5.0 | 11.0 | 0.00 | 0.11 | 0.11 | 49 | 1035.9 |
| 20260504000213 | 68 | 204 | 4.0 | 14.0 | 0.00 | 0.11 | 0.11 | 48 | 1035.8 |
| 20260503235403 | 68 | 206 | 6.0 | 14.0 | 0.00 | 0.11 | 0.11 | 47 | 1035.7 |
| 20260503234714 | 68 | 202 | 5.0 | 12.0 | 0.00 | 0.11 | 0.11 | 46 | 1035.7 |
| 20260503233603 | 69 | 210 | 5.0 | 15.0 | 0.00 | 0.11 | 0.11 | 45 | 1035.7 |
| 20260503232912 | 69 | 209 | 6.0 | 15.0 | 0.00 | 0.11 | 0.11 | 45 | 1035.8 |
| 20260503231803 | 69 | 214 | 6.0 | 14.0 | 0.00 | 0.11 | 0.11 | 44 | 1035.9 |
| 20260503230903 | 69 | 216 | 5.0 | 17.0 | 0.00 | 0.11 | 0.11 | 43 | 1035.9 |
| 20260503230003 | 69 | 206 | 6.0 | 17.0 | 0.00 | 0.11 | 0.11 | 45 | 1035.9 |
| 20260503225403 | 69 | 203 | 6.0 | 15.0 | 0.00 | 0.11 | 0.11 | 44 | 1036.1 |
| 20260503224503 | 69 | 213 | 8.0 | 20.0 | 0.00 | 0.11 | 0.11 | 43 | 1036.1 |
| 20260503223603 | 70 | 209 | 6.0 | 16.0 | 0.00 | 0.11 | 0.11 | 45 | 1036.1 |
| 20260503222703 | 70 | 242 | 5.0 | 15.0 | 0.00 | 0.11 | 0.11 | 43 | 1035.9 |
| 20260503221803 | 70 | 208 | 7.0 | 21.0 | 0.00 | 0.11 | 0.11 | 42 | 1036.1 |
| 20260503220903 | 69 | 211 | 7.0 | 21.0 | 0.00 | 0.11 | 0.11 | 43 | 1036.3 |
| 20260503220003 | 69 | 217 | 7.0 | 18.0 | 0.00 | 0.11 | 0.11 | 43 | 1036.4 |
| 20260503215403 | 69 | 210 | 8.0 | 18.0 | 0.00 | 0.11 | 0.11 | 43 | 1036.2 |
| 20260503214503 | 68 | 194 | 6.0 | 17.0 | 0.00 | 0.11 | 0.11 | 45 | 1036.3 |
| 20260503213603 | 67 | 198 | 8.0 | 17.0 | 0.00 | 0.11 | 0.11 | 45 | 1036.4 |
| 20260503212703 | 67 | 188 | 9.0 | 20.0 | 0.00 | 0.11 | 0.11 | 44 | 1036.3 |
| 20260503211803 | 68 | 191 | 9.0 | 18.0 | 0.00 | 0.11 | 0.11 | 43 | 1036.7 |
| 20260503210903 | 67 | 191 | 9.0 | 20.0 | 0.00 | 0.11 | 0.11 | 44 | 1036.7 |
| 20260503210003 | 67 | 192 | 9.0 | 21.0 | 0.00 | 0.11 | 0.11 | 43 | 1036.8 |
| 20260503205403 | 67 | 203 | 9.0 | 21.0 | 0.00 | 0.11 | 0.11 | 44 | 1037.0 |
| 20260503204503 | 67 | 201 | 10.0 | 21.0 | 0.00 | 0.11 | 0.11 | 44 | 1037.5 |
| 20260503203814 | 66 | 201 | 9.0 | 21.0 | 0.00 | 0.11 | 0.11 | 45 | 1037.5 |
| 20260503202703 | 65 | 199 | 9.0 | 25.0 | 0.00 | 0.11 | 0.11 | 45 | 1037.9 |
| 20260503201803 | 65 | 197 | 10.0 | 25.0 | 0.00 | 0.11 | 0.11 | 45 | 1038.2 |
| 20260503200903 | 64 | 200 | 10.0 | 19.0 | 0.00 | 0.11 | 0.11 | 46 | 1038.4 |
| 20260503200003 | 65 | 202 | 10.0 | 22.0 | 0.00 | 0.11 | 0.11 | 45 | 1038.4 |
| 20260503195403 | 65 | 205 | 12.0 | 24.0 | 0.00 | 0.11 | 0.11 | 44 | 1038.5 |
| 20260503194503 | 66 | 195 | 11.0 | 23.0 | 0.00 | 0.11 | 0.11 | 44 | 1038.6 |
| 20260503193603 | 66 | 196 | 14.0 | 28.0 | 0.00 | 0.11 | 0.11 | 44 | 1038.6 |
| 20260503192703 | 65 | 191 | 12.0 | 27.0 | 0.00 | 0.11 | 0.11 | 43 | 1038.8 |
| 20260503191803 | 64 | 188 | 10.0 | 21.0 | 0.00 | 0.11 | 0.11 | 49 | 1038.8 |
| 20260503190903 | 64 | 182 | 9.0 | 24.0 | 0.00 | 0.11 | 0.11 | 53 | 1039.2 |
| 20260503190003 | 62 | 181 | 10.0 | 19.0 | 0.00 | 0.11 | 0.11 | 54 | 1039.2 |
| 20260503185403 | 62 | 177 | 10.0 | 20.0 | 0.00 | 0.11 | 0.11 | 53 | 1038.9 |
| 20260503184503 | 60 | 177 | 11.0 | 23.0 | 0.00 | 0.11 | 0.11 | 59 | 1039.1 |
| 20260503183813 | 59 | 176 | 11.0 | 23.0 | 0.00 | 0.11 | 0.11 | 59 | 1039.3 |
| 20260503182703 | 59 | 177 | 10.0 | 21.0 | 0.00 | 0.11 | 0.11 | 61 | 1039.4 |
| 20260503182014 | 58 | 173 | 10.0 | 20.0 | 0.00 | 0.11 | 0.11 | 62 | 1039.6 |
| 20260503180903 | 57 | 174 | 10.0 | 20.0 | 0.00 | 0.11 | 0.11 | 66 | 1040.0 |
| 20260503180004 | 56 | 174 | 10.0 | 24.0 | 0.00 | 0.11 | 0.11 | 66 | 1040.2 |
| 20260503175403 | 55 | 172 | 9.0 | 19.0 | 0.00 | 0.11 | 0.11 | 67 | 1040.1 |
| 20260503174503 | 54 | 174 | 9.0 | 22.0 | 0.00 | 0.11 | 0.11 | 69 | 1040.7 |
| 20260503173813 | 55 | 176 | 8.0 | 17.0 | 0.01 | 0.11 | 0.11 | 69 | 1040.7 |
| 20260503172703 | 53 | 170 | 8.0 | 18.0 | 0.01 | 0.11 | 0.11 | 71 | 1040.7 |
| 20260503172013 | 52 | 168 | 8.0 | 17.0 | 0.01 | 0.11 | 0.11 | 76 | 1040.8 |
| 20260503170903 | 50 | 169 | 7.0 | 15.0 | 0.03 | 0.11 | 0.11 | 81 | 1041.7 |
| 20260503160214 | 48 | 168 | 6.0 | 15.0 | 0.04 | 0.07 | 0.07 | 86 | 1043.4 |